East Massapequa, NY

7:58 PM EDT on October 17, 2019 (GMT -0400)
Crown Village Massapequa park | | Change Station

Elev 23 ft 40.67 °N, 73.44 °W | Updated 13 seconds ago

Overcast
Overcast
56.1 °F
Feels Like 56.1 °F
N
4.5
Wind Variable Wind from WNW
Gusts 8.1 mph

Today
High -- | Low -- °F
--% Chance of Precip.
Yesterday
High -- | Low -- °F
Precip. -- in
Pressure 29.48 in
Visibility 10.0 miles
Clouds Mostly Cloudy 4800 ft
Dew Point 43 °F
Humidity 62%
Rainfall 0.00 in
Snow Depth Not available.
7:06 AM 6:10 PM
Waning Gibbous, 84% visible
METAR KFRG 172353Z 29019G28KT 10SM BKN048 13/04 A2948 RMK AO2 PK WND 27037/2301 SLP983 T01330039 10144 20133 53029
Pressure 29.48 in
Visibility 10.0 miles
Clouds Mostly Cloudy 4800 ft
Dew Point 43 °F
Humidity 62%
Rainfall 0.00 in
Snow Depth Not available.
7:06 AM 6:10 PM
Waning Gibbous, 84% visible
METAR KFRG 172353Z 29019G28KT 10SM BKN048 13/04 A2948 RMK AO2 PK WND 27037/2301 SLP983 T01330039 10144 20133 53029

Get Severe Weather Alerts

Thanks for signing up!

Be on the lookout for a verification email in your inbox.

You'll start receiving the daily forecast at 6 AM.

×

10-Day Weather Forecast

Almanac

Astronomy

Oct. 17, 2019 Rise Set
Actual Time
Civil Twilight
Nautical Twilight
Astronomical Twilight
Moon
Length of Visible Light
Length of Day
Tomorrow will be .
, % of the Moon is Illuminated

Today's Extremes

State Highs State Lows

Community

WunderPhotos

Category 6

Welcome to Category 6. This is the collective home for Weather Underground's featured writeups by Dr. Jeff Masters (right), Bob Henson (left), Chris Burt, and other regular contributors.

Nearby

Air Quality

  Air Quality AQ Index Pollutant
Not available.

Snow Depth

Station Depth Elevation

Earthquake Activity

City Distance Mag. Time & Date
Minimum magnitude displayed is 2.5.

Coastal Water Temperatures

Place Temperature

Stations

Nearby Weather Stations

Station Location Temp. Windchill Dew Point Humidity Wind Precip. Elev Updated Type
                   

Watches & Warnings

There are currently no watches in effect.